Time;durP1;ratioP1;P1;durP2;ratioP2;P2;SDS_P1;SDS_P2;PMS_P1;PMS_P2;Temp;Humidity;BMP_temperature;BMP_pressure;BME280_temperature;BME280_humidity;BME280_pressure;Samples;Min_cycle;Max_cycle;Signal;HPM_P1;HPM_P2
2022/02/13 00:00:12;;;;;;;19.90;13.60;;;;;;;;;;507633;29;1143;-75
2022/02/13 00:00:27;;;;;;;19.77;13.15;;;;;;;;;;505462;29;1166;-77
2022/02/13 00:00:43;;;;;;;19.07;12.83;;;;;;;;;;506614;29;1409;-75
2022/02/13 00:01:00;;;;;;;17.50;12.68;;;;;;;;;;507728;29;1275;-76
2022/02/13 00:01:15;;;;;;;17.63;12.80;;;;;;;;;;506004;29;774;-76
2022/02/13 00:01:34;;;;;;;18.58;12.77;;;;;;;;;;507171;29;770;-75
2022/02/13 00:01:49;;;;;;;19.27;13.02;;;;;;;;;;507764;29;817;-75
2022/02/13 00:02:06;;;;;;;20.00;13.07;;;;;;;;;;505692;29;1326;-75
2022/02/13 00:02:22;;;;;;;19.23;12.75;;;;;;;;;;503837;29;1219;-76
2022/02/13 00:02:39;;;;;;;18.37;12.80;;;;;;;;;;503791;29;813;-75
2022/02/13 00:02:54;;;;;;;19.10;12.88;;;;;;;;;;503764;29;774;-75
2022/02/13 00:03:09;;;;;;;18.43;12.77;;;;;;;;;;503699;29;1472;-75
2022/02/13 00:03:27;;;;;;;18.65;12.52;;;;;;;;;;504119;29;1814;-75
2022/02/13 00:03:42;;;;;;;19.90;12.75;;;;;;;;;;503303;29;781;-76
2022/02/13 00:03:58;;;;;;;19.10;12.80;;;;;;;;;;504565;29;734;-76
2022/02/13 00:04:14;;;;;;;19.20;12.80;;;;;;;;;;505812;29;787;-76
2022/02/13 00:04:29;;;;;;;19.05;12.35;;;;;;;;;;507724;29;845;-76
2022/02/13 00:04:45;;;;;;;17.90;12.30;;;;;;;;;;505617;29;1266;-75
2022/02/13 00:05:00;;;;;;;18.20;12.70;;;;;;;;;;505682;29;1144;-76
2022/02/13 00:05:15;;;;;;;19.35;12.68;;;;;;;;;;505330;29;1316;-76
2022/02/13 00:05:31;;;;;;;18.80;12.60;;;;;;;;;;507397;29;802;-76
2022/02/13 00:05:46;;;;;;;18.02;12.75;;;;;;;;;;507072;29;778;-76
2022/02/13 00:06:03;;;;;;;18.33;12.53;;;;;;;;;;507910;29;865;-76
2022/02/13 00:06:18;;;;;;;18.05;12.27;;;;;;;;;;507500;29;1383;-76
2022/02/13 00:06:34;;;;;;;18.13;12.17;;;;;;;;;;507715;29;730;-76
2022/02/13 00:06:49;;;;;;;17.88;12.25;;;;;;;;;;507585;29;889;-75
2022/02/13 00:07:05;;;;;;;17.07;12.80;;;;;;;;;;507126;29;1271;-76
2022/02/13 00:07:20;;;;;;;18.35;12.73;;;;;;;;;;505821;29;1166;-76
2022/02/13 00:07:36;;;;;;;18.87;12.60;;;;;;;;;;505802;29;769;-76
2022/02/13 00:07:51;;;;;;;18.90;12.32;;;;;;;;;;505370;29;856;-76
2022/02/13 00:08:07;;;;;;;18.67;12.40;;;;;;;;;;506051;29;750;-76
2022/02/13 00:08:22;;;;;;;19.05;12.68;;;;;;;;;;506625;29;1514;-76
2022/02/13 00:08:38;;;;;;;18.83;12.60;;;;;;;;;;506039;29;913;-76
2022/02/13 00:08:56;;;;;;;18.90;13.00;;;;;;;;;;507112;29;1058;-76
2022/02/13 00:09:12;;;;;;;18.60;12.80;;;;;;;;;;506110;29;900;-76
2022/02/13 00:09:28;;;;;;;17.65;12.57;;;;;;;;;;505953;29;955;-76
2022/02/13 00:09:43;;;;;;;19.55;12.63;;;;;;;;;;507762;29;781;-76
2022/02/13 00:10:00;;;;;;;19.50;12.40;;;;;;;;;;507630;29;1194;-76
2022/02/13 00:10:15;;;;;;;17.20;12.60;;;;;;;;;;506972;29;837;-76
2022/02/13 00:10:31;;;;;;;18.00;12.68;;;;;;;;;;505549;29;1296;-76
2022/02/13 00:10:46;;;;;;;19.43;12.63;;;;;;;;;;505670;29;815;-76
2022/02/13 00:11:02;;;;;;;19.87;12.53;;;;;;;;;;505694;29;834;-76
2022/02/13 00:11:17;;;;;;;19.10;12.77;;;;;;;;;;503854;29;929;-76
2022/02/13 00:11:32;;;;;;;17.95;13.00;;;;;;;;;;503890;29;878;-76
2022/02/13 00:11:48;;;;;;;17.50;12.53;;;;;;;;;;504000;29;818;-77
2022/02/13 00:12:04;;;;;;;18.23;12.83;;;;;;;;;;503435;29;826;-77
2022/02/13 00:12:22;;;;;;;18.30;13.18;;;;;;;;;;504477;29;822;-77
2022/02/13 00:12:38;;;;;;;17.20;12.38;;;;;;;;;;505825;29;952;-77
2022/02/13 00:12:54;;;;;;;16.85;12.13;;;;;;;;;;507665;29;1345;-76
2022/02/13 00:13:09;;;;;;;16.43;12.23;;;;;;;;;;507398;29;1472;-76
2022/02/13 00:13:24;;;;;;;16.38;12.30;;;;;;;;;;503843;29;1947;-76
2022/02/13 00:13:40;;;;;;;16.77;12.37;;;;;;;;;;505630;29;774;-77
2022/02/13 00:13:55;;;;;;;16.95;12.77;;;;;;;;;;503589;29;847;-76
2022/02/13 00:14:10;;;;;;;17.97;12.93;;;;;;;;;;503591;29;742;-76
2022/02/13 00:14:28;;;;;;;18.40;13.00;;;;;;;;;;505215;29;1228;-76
2022/02/13 00:14:43;;;;;;;18.63;12.80;;;;;;;;;;505507;29;786;-77
2022/02/13 00:14:58;;;;;;;18.55;12.32;;;;;;;;;;505651;29;774;-76
2022/02/13 00:15:14;;;;;;;19.70;12.50;;;;;;;;;;506022;29;766;-76
2022/02/13 00:15:30;;;;;;;19.30;13.00;;;;;;;;;;507510;29;685;-77
2022/02/13 00:15:45;;;;;;;18.92;13.13;;;;;;;;;;507471;29;754;-77
2022/02/13 00:16:00;;;;;;;19.67;13.33;;;;;;;;;;507363;29;861;-76
2022/02/13 00:16:17;;;;;;;18.40;12.90;;;;;;;;;;507340;29;924;-76
2022/02/13 00:16:32;;;;;;;17.95;12.75;;;;;;;;;;507764;29;940;-76
2022/02/13 00:16:47;;;;;;;20.27;13.40;;;;;;;;;;507703;29;806;-77
2022/02/13 00:17:03;;;;;;;19.65;13.23;;;;;;;;;;507645;29;691;-76
2022/02/13 00:17:18;;;;;;;18.37;12.63;;;;;;;;;;507828;29;937;-76
2022/02/13 00:17:34;;;;;;;18.92;12.85;;;;;;;;;;507717;29;754;-76
2022/02/13 00:17:49;;;;;;;18.47;13.00;;;;;;;;;;505610;29;1171;-76
2022/02/13 00:18:05;;;;;;;19.35;13.20;;;;;;;;;;503759;29;1258;-76
2022/02/13 00:18:20;;;;;;;18.60;12.83;;;;;;;;;;502900;29;1492;-77
2022/02/13 00:18:35;;;;;;;17.83;12.80;;;;;;;;;;501598;29;1362;-77
2022/02/13 00:18:54;;;;;;;17.65;12.65;;;;;;;;;;501559;29;1472;-77
2022/02/13 00:19:09;;;;;;;17.63;12.75;;;;;;;;;;501980;29;759;-76
2022/02/13 00:19:24;;;;;;;19.30;13.07;;;;;;;;;;501828;29;909;-76
2022/02/13 00:19:41;;;;;;;18.73;12.60;;;;;;;;;;502236;29;711;-76
2022/02/13 00:19:58;;;;;;;16.92;12.05;;;;;;;;;;503809;29;849;-77
2022/02/13 00:20:13;;;;;;;18.05;12.52;;;;;;;;;;503523;29;833;-76
2022/02/13 00:20:29;;;;;;;18.73;13.02;;;;;;;;;;501834;29;1385;-76
2022/02/13 00:20:45;;;;;;;18.48;13.63;;;;;;;;;;504223;29;842;-76
2022/02/13 00:21:00;;;;;;;18.57;13.63;;;;;;;;;;505453;29;1399;-76
2022/02/13 00:21:15;;;;;;;19.35;13.30;;;;;;;;;;505372;29;1195;-76
2022/02/13 00:21:31;;;;;;;19.37;13.17;;;;;;;;;;505518;29;786;-76
2022/02/13 00:21:46;;;;;;;19.63;13.18;;;;;;;;;;505602;29;813;-76
2022/02/13 00:22:02;;;;;;;19.97;13.50;;;;;;;;;;505508;29;814;-76
2022/02/13 00:22:18;;;;;;;19.45;13.60;;;;;;;;;;505842;29;782;-77
2022/02/13 00:22:33;;;;;;;18.83;13.43;;;;;;;;;;507116;29;766;-77
2022/02/13 00:22:49;;;;;;;19.10;13.30;;;;;;;;;;505757;29;905;-76
2022/02/13 00:23:04;;;;;;;19.50;13.23;;;;;;;;;;506005;29;789;-76
2022/02/13 00:23:19;;;;;;;19.63;13.60;;;;;;;;;;504958;29;1547;-77
2022/02/13 00:23:35;;;;;;;20.20;13.67;;;;;;;;;;505956;29;799;-76
2022/02/13 00:23:50;;;;;;;20.55;13.82;;;;;;;;;;506015;29;788;-77
2022/02/13 00:24:06;;;;;;;21.13;14.20;;;;;;;;;;503637;29;842;-77
2022/02/13 00:24:21;;;;;;;21.30;14.00;;;;;;;;;;503649;29;877;-76
2022/02/13 00:24:36;;;;;;;19.57;14.00;;;;;;;;;;503873;29;1064;-76
2022/02/13 00:24:52;;;;;;;19.80;13.93;;;;;;;;;;505988;29;869;-76
2022/02/13 00:25:07;;;;;;;20.97;13.80;;;;;;;;;;505939;29;762;-77
2022/02/13 00:25:23;;;;;;;19.80;13.63;;;;;;;;;;505393;29;925;-76
2022/02/13 00:25:38;;;;;;;19.10;13.23;;;;;;;;;;505615;29;810;-77
2022/02/13 00:25:54;;;;;;;20.77;13.23;;;;;;;;;;505945;29;727;-76
2022/02/13 00:26:09;;;;;;;22.40;13.53;;;;;;;;;;507801;29;817;-76
2022/02/13 00:26:25;;;;;;;20.50;13.73;;;;;;;;;;507661;29;742;-76
2022/02/13 00:26:40;;;;;;;19.80;13.87;;;;;;;;;;505053;29;1395;-76
2022/02/13 00:26:56;;;;;;;19.60;13.70;;;;;;;;;;505789;29;833;-76
2022/02/13 00:27:11;;;;;;;19.15;13.10;;;;;;;;;;506098;29;742;-76
2022/02/13 00:27:27;;;;;;;19.05;12.85;;;;;;;;;;506245;29;747;-77
2022/02/13 00:27:45;;;;;;;17.87;13.20;;;;;;;;;;506223;29;801;-77
2022/02/13 00:28:00;;;;;;;17.67;13.30;;;;;;;;;;504070;29;1186;-76
2022/02/13 00:28:16;;;;;;;20.38;13.63;;;;;;;;;;502998;29;1504;-76
2022/02/13 00:28:32;;;;;;;20.00;13.77;;;;;;;;;;503732;29;917;-77
2022/02/13 00:28:48;;;;;;;19.65;13.25;;;;;;;;;;505741;29;841;-77
2022/02/13 00:29:03;;;;;;;20.13;13.17;;;;;;;;;;506098;29;1360;-77
2022/02/13 00:29:18;;;;;;;18.73;13.55;;;;;;;;;;505928;29;815;-77
2022/02/13 00:29:34;;;;;;;18.63;13.37;;;;;;;;;;506108;29;759;-77
2022/02/13 00:29:49;;;;;;;19.17;13.23;;;;;;;;;;506296;29;746;-76
2022/02/13 00:30:07;;;;;;;19.35;13.32;;;;;;;;;;508007;29;775;-77
2022/02/13 00:30:22;;;;;;;19.50;14.02;;;;;;;;;;507612;29;775;-77
2022/02/13 00:30:38;;;;;;;19.77;13.83;;;;;;;;;;505593;29;794;-76
2022/02/13 00:30:53;;;;;;;19.47;13.33;;;;;;;;;;505979;29;730;-76
2022/02/13 00:31:09;;;;;;;19.38;13.65;;;;;;;;;;506228;29;948;-76
2022/02/13 00:31:24;;;;;;;19.63;14.05;;;;;;;;;;505976;29;770;-76
2022/02/13 00:31:39;;;;;;;19.30;13.67;;;;;;;;;;503930;29;1151;-76
2022/02/13 00:31:55;;;;;;;19.30;13.40;;;;;;;;;;503949;29;1244;-76
2022/02/13 00:32:10;;;;;;;19.13;13.55;;;;;;;;;;504032;29;965;-76
2022/02/13 00:32:27;;;;;;;19.73;13.20;;;;;;;;;;504070;29;1304;-76
2022/02/13 00:32:44;;;;;;;19.92;13.30;;;;;;;;;;505700;29;739;-76
2022/02/13 00:32:59;;;;;;;19.30;13.77;;;;;;;;;;505961;29;822;-76
2022/02/13 00:33:16;;;;;;;18.53;13.50;;;;;;;;;;505460;29;1907;-76
2022/02/13 00:33:32;;;;;;;16.90;12.73;;;;;;;;;;506879;29;940;-76
2022/02/13 00:33:47;;;;;;;16.42;12.70;;;;;;;;;;508078;29;773;-77
2022/02/13 00:34:06;;;;;;;19.27;13.70;;;;;;;;;;507968;29;838;-77
2022/02/13 00:34:21;;;;;;;20.25;14.32;;;;;;;;;;507814;29;1019;-76
2022/02/13 00:34:36;;;;;;;18.97;13.47;;;;;;;;;;508189;29;960;-77
2022/02/13 00:34:52;;;;;;;18.73;12.85;;;;;;;;;;507788;29;845;-76
2022/02/13 00:35:08;;;;;;;19.20;13.33;;;;;;;;;;507973;29;750;-76
2022/02/13 00:35:23;;;;;;;21.33;13.90;;;;;;;;;;507714;29;1012;-76
2022/02/13 00:35:38;;;;;;;21.53;13.93;;;;;;;;;;508024;29;726;-76
2022/02/13 00:35:54;;;;;;;19.85;13.50;;;;;;;;;;505984;29;1346;-76
2022/02/13 00:36:09;;;;;;;19.07;13.27;;;;;;;;;;504304;29;1030;-76
2022/02/13 00:36:24;;;;;;;17.65;12.88;;;;;;;;;;504103;29;1240;-76
2022/02/13 00:36:40;;;;;;;19.10;13.37;;;;;;;;;;504092;29;676;-77
2022/02/13 00:36:55;;;;;;;19.87;13.40;;;;;;;;;;503851;29;1290;-76
2022/02/13 00:37:11;;;;;;;18.05;13.00;;;;;;;;;;504157;29;972;-76
2022/02/13 00:37:26;;;;;;;17.87;13.07;;;;;;;;;;504113;29;797;-76
2022/02/13 00:37:43;;;;;;;19.73;13.10;;;;;;;;;;504063;29;1350;-76
2022/02/13 00:37:58;;;;;;;20.60;12.95;;;;;;;;;;506407;29;758;-76
2022/02/13 00:38:14;;;;;;;18.85;12.90;;;;;;;;;;505421;29;1555;-76
2022/02/13 00:38:29;;;;;;;18.13;13.02;;;;;;;;;;505516;29;775;-76
2022/02/13 00:38:47;;;;;;;18.70;12.87;;;;;;;;;;504634;29;874;-76
2022/02/13 00:39:02;;;;;;;19.40;13.07;;;;;;;;;;503470;29;1507;-76
2022/02/13 00:39:18;;;;;;;19.50;13.00;;;;;;;;;;503942;29;1333;-76
2022/02/13 00:39:33;;;;;;;18.07;12.87;;;;;;;;;;503953;29;1393;-76
2022/02/13 00:39:48;;;;;;;18.65;13.05;;;;;;;;;;504123;29;971;-76
2022/02/13 00:40:05;;;;;;;20.80;13.10;;;;;;;;;;503762;29;1480;-76
2022/02/13 00:40:20;;;;;;;20.75;13.38;;;;;;;;;;504020;29;1304;-76
2022/02/13 00:40:36;;;;;;;19.50;13.30;;;;;;;;;;504107;29;1210;-76
2022/02/13 00:40:52;;;;;;;17.80;13.02;;;;;;;;;;504244;29;778;-77
2022/02/13 00:41:07;;;;;;;17.92;13.27;;;;;;;;;;503854;29;928;-76
2022/02/13 00:41:22;;;;;;;19.27;13.37;;;;;;;;;;504594;29;924;-76
2022/02/13 00:41:38;;;;;;;18.93;12.77;;;;;;;;;;505998;29;1346;-76
2022/02/13 00:41:57;;;;;;;19.30;12.80;;;;;;;;;;506128;29;915;-76
2022/02/13 00:42:13;;;;;;;18.08;13.02;;;;;;;;;;506924;29;913;-76
2022/02/13 00:42:28;;;;;;;18.33;12.87;;;;;;;;;;506140;29;1169;-76
2022/02/13 00:42:44;;;;;;;19.10;13.10;;;;;;;;;;506012;29;793;-76
2022/02/13 00:42:59;;;;;;;19.17;13.60;;;;;;;;;;506106;29;935;-76
2022/02/13 00:43:14;;;;;;;21.10;13.73;;;;;;;;;;505112;29;1496;-76
2022/02/13 00:43:30;;;;;;;19.38;13.30;;;;;;;;;;505878;29;1191;-76
2022/02/13 00:43:46;;;;;;;16.87;13.00;;;;;;;;;;505920;29;1070;-76
2022/02/13 00:44:01;;;;;;;17.10;13.02;;;;;;;;;;504100;29;798;-77
2022/02/13 00:44:16;;;;;;;18.30;13.43;;;;;;;;;;504490;29;734;-77
2022/02/13 00:44:32;;;;;;;18.98;13.80;;;;;;;;;;506089;29;781;-76
2022/02/13 00:44:47;;;;;;;19.73;13.93;;;;;;;;;;505888;29;1157;-77
2022/02/13 00:45:06;;;;;;;20.50;13.60;;;;;;;;;;506021;29;960;-76
2022/02/13 00:45:21;;;;;;;19.73;13.70;;;;;;;;;;504959;29;1297;-77
2022/02/13 00:45:36;;;;;;;19.20;13.77;;;;;;;;;;505811;29;782;-76
2022/02/13 00:45:52;;;;;;;18.30;13.27;;;;;;;;;;506150;29;968;-77
2022/02/13 00:46:07;;;;;;;18.57;13.43;;;;;;;;;;507823;29;785;-76
2022/02/13 00:46:23;;;;;;;18.77;13.50;;;;;;;;;;507730;29;785;-76
2022/02/13 00:46:38;;;;;;;17.85;13.13;;;;;;;;;;507938;29;805;-77
2022/02/13 00:46:54;;;;;;;16.77;13.00;;;;;;;;;;507980;29;865;-76
2022/02/13 00:47:09;;;;;;;17.60;13.07;;;;;;;;;;508185;29;802;-77
2022/02/13 00:47:24;;;;;;;18.17;13.25;;;;;;;;;;507627;29;801;-76
2022/02/13 00:47:40;;;;;;;18.37;13.23;;;;;;;;;;508072;29;792;-77
2022/02/13 00:47:55;;;;;;;19.73;13.18;;;;;;;;;;508096;29;789;-76
2022/02/13 00:48:13;;;;;;;20.73;13.37;;;;;;;;;;507578;29;1502;-76
2022/02/13 00:48:28;;;;;;;19.02;13.45;;;;;;;;;;507630;29;1435;-77
2022/02/13 00:48:43;;;;;;;18.23;13.07;;;;;;;;;;507892;29;1229;-76
2022/02/13 00:49:01;;;;;;;18.10;13.10;;;;;;;;;;507949;29;1241;-76
2022/02/13 00:49:17;;;;;;;18.15;13.45;;;;;;;;;;505650;29;798;-76
2022/02/13 00:49:32;;;;;;;18.38;13.40;;;;;;;;;;504588;29;1124;-77
2022/02/13 00:49:48;;;;;;;18.03;13.17;;;;;;;;;;505220;29;797;-76
2022/02/13 00:50:03;;;;;;;17.95;13.10;;;;;;;;;;505776;29;866;-76
2022/02/13 00:50:21;;;;;;;18.27;13.17;;;;;;;;;;505524;29;967;-77
2022/02/13 00:50:38;;;;;;;18.17;13.27;;;;;;;;;;505849;29;1226;-77
2022/02/13 00:50:53;;;;;;;19.73;13.82;;;;;;;;;;505922;29;845;-77
2022/02/13 00:51:08;;;;;;;19.13;13.73;;;;;;;;;;500801;29;975;-77
2022/02/13 00:51:24;;;;;;;18.88;13.50;;;;;;;;;;505167;29;1235;-77
2022/02/13 00:51:39;;;;;;;19.57;13.30;;;;;;;;;;501494;29;1481;-76
2022/02/13 00:51:55;;;;;;;19.38;13.23;;;;;;;;;;501721;29;1100;-76
2022/02/13 00:52:10;;;;;;;19.17;13.50;;;;;;;;;;503346;29;1243;-76
2022/02/13 00:52:30;;;;;;;18.83;13.27;;;;;;;;;;502502;29;1104;-77
2022/02/13 00:52:45;;;;;;;19.05;13.43;;;;;;;;;;503961;29;888;-77
2022/02/13 00:53:01;;;;;;;17.67;13.40;;;;;;;;;;505673;29;995;-76
2022/02/13 00:53:16;;;;;;;18.03;13.30;;;;;;;;;;502979;29;1964;-76
2022/02/13 00:53:39;;;;;;;19.13;13.40;;;;;;;;;;504219;29;1225;-75
2022/02/13 00:53:55;;;;;;;19.15;13.60;;;;;;;;;;503769;29;931;-76
2022/02/13 00:54:10;;;;;;;18.90;13.18;;;;;;;;;;505292;29;1409;-77
2022/02/13 00:54:26;;;;;;;19.10;12.77;;;;;;;;;;505666;29;821;-77
2022/02/13 00:54:41;;;;;;;19.27;12.90;;;;;;;;;;507785;29;980;-77
2022/02/13 00:54:57;;;;;;;19.53;12.87;;;;;;;;;;507708;29;964;-77
2022/02/13 00:55:12;;;;;;;19.67;13.17;;;;;;;;;;509046;29;769;-77
2022/02/13 00:55:27;;;;;;;19.60;13.48;;;;;;;;;;506802;29;859;-77
2022/02/13 00:55:43;;;;;;;19.23;13.10;;;;;;;;;;507032;29;909;-77
2022/02/13 00:55:58;;;;;;;18.07;13.10;;;;;;;;;;507691;29;881;-77
2022/02/13 00:56:14;;;;;;;18.17;13.05;;;;;;;;;;507046;29;1028;-77
2022/02/13 00:56:29;;;;;;;17.73;12.73;;;;;;;;;;507638;29;1024;-77
2022/02/13 00:56:45;;;;;;;17.50;12.90;;;;;;;;;;507626;29;939;-77
2022/02/13 00:57:01;;;;;;;18.48;13.00;;;;;;;;;;508926;29;831;-77
2022/02/13 00:57:16;;;;;;;18.58;13.00;;;;;;;;;;508111;29;818;-77
2022/02/13 00:57:35;;;;;;;18.70;12.83;;;;;;;;;;508163;29;884;-77
2022/02/13 00:57:50;;;;;;;19.50;12.95;;;;;;;;;;507168;29;829;-77
2022/02/13 00:58:06;;;;;;;19.10;13.17;;;;;;;;;;507867;29;785;-77
2022/02/13 00:58:21;;;;;;;18.23;13.27;;;;;;;;;;505538;29;1570;-77
2022/02/13 00:58:36;;;;;;;16.67;12.73;;;;;;;;;;506405;29;845;-77
2022/02/13 00:58:54;;;;;;;17.73;12.83;;;;;;;;;;506380;29;730;-77
2022/02/13 00:59:10;;;;;;;18.40;12.48;;;;;;;;;;506993;29;840;-77
2022/02/13 00:59:25;;;;;;;19.10;12.67;;;;;;;;;;507918;29;1276;-77
2022/02/13 00:59:40;;;;;;;18.30;12.77;;;;;;;;;;507794;29;1245;-77
2022/02/13 00:59:56;;;;;;;16.93;12.60;;;;;;;;;;507430;29;841;-77
2022/02/13 01:00:12;;;;;;;18.13;12.80;;;;;;;;;;506927;29;991;-77
2022/02/13 01:00:27;;;;;;;17.60;12.88;;;;;;;;;;505484;29;887;-77
2022/02/13 01:00:44;;;;;;;17.02;12.45;;;;;;;;;;505752;29;1132;-77
2022/02/13 01:00:59;;;;;;;17.88;12.63;;;;;;;;;;505770;29;1241;-77
2022/02/13 01:01:15;;;;;;;18.73;12.77;;;;;;;;;;506085;29;836;-77
2022/02/13 01:01:30;;;;;;;18.63;12.90;;;;;;;;;;508210;29;797;-77
2022/02/13 01:01:45;;;;;;;17.73;12.90;;;;;;;;;;507937;29;1213;-77
2022/02/13 01:02:01;;;;;;;18.25;12.57;;;;;;;;;;507344;29;1106;-77
2022/02/13 01:02:16;;;;;;;19.33;12.63;;;;;;;;;;507785;29;820;-77
2022/02/13 01:02:31;;;;;;;18.57;12.80;;;;;;;;;;507347;29;805;-77
2022/02/13 01:02:47;;;;;;;18.88;12.88;;;;;;;;;;505983;29;842;-77
2022/02/13 01:03:02;;;;;;;18.47;12.83;;;;;;;;;;508035;29;754;-77
2022/02/13 01:03:18;;;;;;;17.27;12.63;;;;;;;;;;503287;29;1461;-76
2022/02/13 01:03:33;;;;;;;19.10;12.83;;;;;;;;;;503869;29;648;-77
2022/02/13 01:03:49;;;;;;;19.00;12.73;;;;;;;;;;506732;29;1202;-77
2022/02/13 01:04:05;;;;;;;18.73;12.70;;;;;;;;;;505414;29;762;-77
2022/02/13 01:04:20;;;;;;;18.37;12.80;;;;;;;;;;505969;29;936;-76
2022/02/13 01:04:36;;;;;;;17.58;12.50;;;;;;;;;;507697;29;800;-77
2022/02/13 01:04:51;;;;;;;18.37;12.63;;;;;;;;;;507414;29;833;-77
2022/02/13 01:05:07;;;;;;;18.98;12.82;;;;;;;;;;507827;29;1120;-77
2022/02/13 01:05:22;;;;;;;19.10;12.90;;;;;;;;;;508537;29;757;-77
2022/02/13 01:05:37;;;;;;;18.52;12.65;;;;;;;;;;507237;29;762;-77
2022/02/13 01:05:53;;;;;;;16.67;12.40;;;;;;;;;;503497;29;1195;-75
2022/02/13 01:06:08;;;;;;;17.67;12.67;;;;;;;;;;504930;29;727;-75
2022/02/13 01:06:27;;;;;;;19.03;12.50;;;;;;;;;;505792;29;739;-75
2022/02/13 01:06:43;;;;;;;19.52;12.77;;;;;;;;;;505655;29;754;-75
2022/02/13 01:06:58;;;;;;;20.17;13.30;;;;;;;;;;504212;29;1415;-76
2022/02/13 01:07:13;;;;;;;19.40;12.70;;;;;;;;;;504703;29;900;-76
2022/02/13 01:07:29;;;;;;;17.80;12.07;;;;;;;;;;506069;29;762;-76
2022/02/13 01:07:44;;;;;;;17.92;12.40;;;;;;;;;;507996;29;766;-75
2022/02/13 01:08:00;;;;;;;19.17;12.47;;;;;;;;;;510028;29;829;-76
2022/02/13 01:08:15;;;;;;;19.15;12.35;;;;;;;;;;508143;29;1466;-76
2022/02/13 01:08:31;;;;;;;18.47;12.47;;;;;;;;;;507384;29;738;-76
2022/02/13 01:08:46;;;;;;;18.02;12.77;;;;;;;;;;504970;29;2056;-76
2022/02/13 01:09:03;;;;;;;18.50;13.07;;;;;;;;;;504846;29;1246;-76
2022/02/13 01:09:18;;;;;;;17.85;12.60;;;;;;;;;;504506;29;825;-76
2022/02/13 01:09:33;;;;;;;18.87;12.40;;;;;;;;;;503951;29;750;-76
2022/02/13 01:09:49;;;;;;;19.13;12.63;;;;;;;;;;504240;29;786;-76
2022/02/13 01:10:05;;;;;;;17.23;12.83;;;;;;;;;;503917;29;1211;-76
2022/02/13 01:10:20;;;;;;;17.73;12.93;;;;;;;;;;502795;29;1285;-76
2022/02/13 01:10:36;;;;;;;18.23;12.82;;;;;;;;;;504223;29;762;-76
2022/02/13 01:10:51;;;;;;;19.67;12.80;;;;;;;;;;503993;29;889;-76
2022/02/13 01:11:07;;;;;;;20.40;13.27;;;;;;;;;;508062;29;852;-77
2022/02/13 01:11:22;;;;;;;19.48;13.23;;;;;;;;;;508110;29;786;-77
2022/02/13 01:11:38;;;;;;;18.98;13.07;;;;;;;;;;505976;29;1385;-76
2022/02/13 01:11:53;;;;;;;20.10;13.27;;;;;;;;;;505753;29;1260;-76
2022/02/13 01:12:09;;;;;;;19.63;13.30;;;;;;;;;;506918;29;1338;-77
2022/02/13 01:12:24;;;;;;;19.90;13.25;;;;;;;;;;505460;29;1285;-75
2022/02/13 01:12:40;;;;;;;19.70;13.20;;;;;;;;;;509105;29;872;-75
2022/02/13 01:12:55;;;;;;;18.73;13.10;;;;;;;;;;509798;29;946;-76
2022/02/13 01:13:10;;;;;;;19.15;12.88;;;;;;;;;;509367;29;1561;-75
2022/02/13 01:13:27;;;;;;;21.50;13.53;;;;;;;;;;507937;29;1954;-76
2022/02/13 01:13:44;;;;;;;21.80;14.02;;;;;;;;;;507946;29;1415;-76
2022/02/13 01:14:00;;;;;;;19.67;13.82;;;;;;;;;;506055;29;1326;-76
2022/02/13 01:14:16;;;;;;;20.10;13.73;;;;;;;;;;506874;29;777;-76
2022/02/13 01:14:31;;;;;;;18.42;13.02;;;;;;;;;;507346;29;1312;-76
2022/02/13 01:14:47;;;;;;;19.37;12.97;;;;;;;;;;507903;29;1153;-75
2022/02/13 01:15:02;;;;;;;20.27;13.43;;;;;;;;;;507406;29;916;-75
2022/02/13 01:15:18;;;;;;;19.85;13.50;;;;;;;;;;507527;29;832;-76
2022/02/13 01:15:33;;;;;;;20.70;13.50;;;;;;;;;;507982;29;934;-77
2022/02/13 01:15:48;;;;;;;19.03;13.30;;;;;;;;;;507396;29;948;-76
2022/02/13 01:16:04;;;;;;;17.90;13.30;;;;;;;;;;507843;29;753;-76
2022/02/13 01:16:19;;;;;;;18.17;13.40;;;;;;;;;;508115;29;785;-76
2022/02/13 01:16:34;;;;;;;19.43;13.60;;;;;;;;;;509136;29;762;-76
2022/02/13 01:16:50;;;;;;;20.35;13.45;;;;;;;;;;510001;29;924;-76
2022/02/13 01:17:05;;;;;;;19.37;13.10;;;;;;;;;;507982;29;1291;-76
2022/02/13 01:17:20;;;;;;;18.77;13.23;;;;;;;;;;508131;29;742;-76
2022/02/13 01:17:36;;;;;;;20.70;13.38;;;;;;;;;;505934;29;1056;-76
2022/02/13 01:17:51;;;;;;;21.33;13.17;;;;;;;;;;506009;29;834;-76
2022/02/13 01:18:06;;;;;;;20.30;13.50;;;;;;;;;;505774;29;837;-76
2022/02/13 01:18:22;;;;;;;21.15;14.20;;;;;;;;;;504725;29;1484;-76
2022/02/13 01:18:37;;;;;;;20.77;13.87;;;;;;;;;;503627;29;1312;-76
2022/02/13 01:18:54;;;;;;;18.80;13.02;;;;;;;;;;505583;29;877;-76
2022/02/13 01:19:09;;;;;;;16.65;12.32;;;;;;;;;;507857;29;852;-76
2022/02/13 01:19:24;;;;;;;19.05;12.82;;;;;;;;;;505379;29;1335;-76
2022/02/13 01:19:40;;;;;;;20.87;13.23;;;;;;;;;;506052;29;793;-76
2022/02/13 01:19:55;;;;;;;19.60;13.13;;;;;;;;;;506242;29;865;-76
2022/02/13 01:20:11;;;;;;;19.08;13.18;;;;;;;;;;507840;29;1183;-76
2022/02/13 01:20:26;;;;;;;18.77;12.77;;;;;;;;;;506369;29;749;-76
2022/02/13 01:20:41;;;;;;;18.30;12.38;;;;;;;;;;505416;29;1372;-76
2022/02/13 01:20:57;;;;;;;17.63;12.20;;;;;;;;;;507896;29;861;-77
2022/02/13 01:21:12;;;;;;;18.53;12.27;;;;;;;;;;508203;29;928;-77
2022/02/13 01:21:31;;;;;;;18.38;12.40;;;;;;;;;;510021;29;741;-76
2022/02/13 01:21:46;;;;;;;17.20;12.63;;;;;;;;;;506456;29;1273;-77
2022/02/13 01:22:04;;;;;;;17.40;12.75;;;;;;;;;;506173;29;877;-76
2022/02/13 01:22:20;;;;;;;19.00;12.73;;;;;;;;;;505922;29;837;-77
2022/02/13 01:22:35;;;;;;;18.97;12.77;;;;;;;;;;507691;29;1144;-77
2022/02/13 01:22:50;;;;;;;18.33;12.90;;;;;;;;;;505332;29;933;-77
2022/02/13 01:23:06;;;;;;;18.20;12.77;;;;;;;;;;505944;29;604;-77
2022/02/13 01:23:21;;;;;;;16.92;12.05;;;;;;;;;;502493;29;1536;-77
2022/02/13 01:23:37;;;;;;;17.37;12.20;;;;;;;;;;502240;29;968;-77
2022/02/13 01:23:52;;;;;;;18.75;13.05;;;;;;;;;;503456;29;1280;-77
2022/02/13 01:24:08;;;;;;;17.70;12.97;;;;;;;;;;504819;29;790;-77
2022/02/13 01:24:23;;;;;;;18.83;12.45;;;;;;;;;;502315;29;1335;-77
2022/02/13 01:24:38;;;;;;;18.37;12.43;;;;;;;;;;501878;29;1343;-77
2022/02/13 01:24:54;;;;;;;16.77;12.30;;;;;;;;;;504189;29;814;-77
2022/02/13 01:25:09;;;;;;;17.60;12.18;;;;;;;;;;504075;29;1241;-77
2022/02/13 01:25:24;;;;;;;18.90;12.50;;;;;;;;;;503603;29;1184;-77
2022/02/13 01:25:40;;;;;;;20.15;13.00;;;;;;;;;;503742;29;1284;-77
2022/02/13 01:25:55;;;;;;;20.33;13.33;;;;;;;;;;503829;29;767;-77
2022/02/13 01:26:11;;;;;;;18.90;13.13;;;;;;;;;;504045;29;766;-77
2022/02/13 01:26:26;;;;;;;19.05;12.82;;;;;;;;;;504347;29;953;-76
2022/02/13 01:26:42;;;;;;;19.17;13.10;;;;;;;;;;505570;29;1049;-77
2022/02/13 01:26:57;;;;;;;18.70;13.40;;;;;;;;;;504090;29;1408;-77
2022/02/13 01:27:13;;;;;;;19.63;13.05;;;;;;;;;;506407;29;1061;-77
2022/02/13 01:27:28;;;;;;;18.03;12.57;;;;;;;;;;509258;29;1096;-77
2022/02/13 01:27:44;;;;;;;17.20;12.60;;;;;;;;;;510109;29;921;-77
2022/02/13 01:28:00;;;;;;;17.87;12.43;;;;;;;;;;510168;29;797;-76
2022/02/13 01:28:16;;;;;;;19.15;12.55;;;;;;;;;;508445;29;1365;-76
2022/02/13 01:28:31;;;;;;;19.53;12.90;;;;;;;;;;507781;29;920;-77
2022/02/13 01:28:47;;;;;;;18.20;12.87;;;;;;;;;;508166;29;806;-76
2022/02/13 01:29:02;;;;;;;19.93;13.03;;;;;;;;;;508561;29;1336;-77
2022/02/13 01:29:18;;;;;;;20.45;12.80;;;;;;;;;;507904;29;1339;-76
2022/02/13 01:29:34;;;;;;;18.40;12.55;;;;;;;;;;508022;29;1397;-76
2022/02/13 01:29:51;;;;;;;17.85;12.65;;;;;;;;;;505781;29;1234;-77
2022/02/13 01:30:06;;;;;;;19.70;12.82;;;;;;;;;;505981;29;788;-77
2022/02/13 01:30:22;;;;;;;19.17;12.77;;;;;;;;;;505403;29;1845;-77
2022/02/13 01:30:38;;;;;;;17.98;12.63;;;;;;;;;;504130;29;1442;-77
2022/02/13 01:30:57;;;;;;;17.55;12.52;;;;;;;;;;503579;29;1226;-77
2022/02/13 01:31:14;;;;;;;18.58;12.40;;;;;;;;;;503641;29;860;-76
2022/02/13 01:31:30;;;;;;;19.33;12.27;;;;;;;;;;503917;29;962;-77
2022/02/13 01:31:45;;;;;;;18.85;11.88;;;;;;;;;;505380;29;849;-77
2022/02/13 01:32:01;;;;;;;18.20;12.33;;;;;;;;;;505894;29;723;-76
2022/02/13 01:32:16;;;;;;;17.83;12.55;;;;;;;;;;504858;29;1310;-77
2022/02/13 01:32:31;;;;;;;16.97;12.30;;;;;;;;;;506979;29;793;-76
2022/02/13 01:32:47;;;;;;;18.55;12.23;;;;;;;;;;507655;29;1446;-77
2022/02/13 01:33:03;;;;;;;19.20;12.43;;;;;;;;;;505843;29;1390;-77
2022/02/13 01:33:19;;;;;;;17.88;12.60;;;;;;;;;;505707;29;1907;-77
2022/02/13 01:33:34;;;;;;;17.52;12.65;;;;;;;;;;505785;29;762;-77
2022/02/13 01:33:49;;;;;;;17.87;12.40;;;;;;;;;;505904;29;1295;-77
2022/02/13 01:34:05;;;;;;;17.90;12.27;;;;;;;;;;507527;29;805;-77
2022/02/13 01:34:21;;;;;;;16.55;12.30;;;;;;;;;;504541;29;1237;-77
2022/02/13 01:34:36;;;;;;;16.30;12.23;;;;;;;;;;503980;29;1179;-76
2022/02/13 01:34:52;;;;;;;16.77;12.30;;;;;;;;;;505982;29;917;-77
2022/02/13 01:35:07;;;;;;;17.43;12.03;;;;;;;;;;508002;29;966;-77